Time;durP1;ratioP1;P1;durP2;ratioP2;P2;SDS_P1;SDS_P2;PMS_P1;PMS_P2;Temp;Humidity;BMP_temperature;BMP_pressure;BME280_temperature;BME280_humidity;BME280_pressure;Samples;Min_cycle;Max_cycle;Signal;HPM_P1;HPM_P2
2024/01/05 00:01:05;;;;;;;2.30;2.20;;;;;;;8.62;100.00;14766.78;5094400;28;20204;-64
2024/01/05 00:03:32;;;;;;;2.27;2.00;;;;;;;8.65;100.00;15407.50;5094411;28;20192;-64
2024/01/05 00:06:00;;;;;;;2.67;2.47;;;;;;;8.62;100.00;16046.66;5094364;28;20596;-64
2024/01/05 00:08:27;;;;;;;2.30;2.20;;;;;;;8.57;100.00;16365.31;5094091;28;20184;-63
2024/01/05 00:10:54;;;;;;;2.60;2.50;;;;;;;8.56;100.00;16364.84;5094006;28;20199;-64
2024/01/05 00:13:21;;;;;;;2.43;2.33;;;;;;;8.57;100.00;16365.31;5094196;28;20192;-64
2024/01/05 00:15:49;;;;;;;3.73;2.33;;;;;;;8.60;100.00;17006.38;5093956;28;20246;-64
2024/01/05 00:18:16;;;;;;;2.37;2.27;;;;;;;8.63;100.00;17647.75;5094565;28;20548;-64
2024/01/05 00:20:43;;;;;;;2.60;2.33;;;;;;;8.65;100.00;18609.50;5093798;28;20735;-64
2024/01/05 00:23:11;;;;;;;2.60;2.50;;;;;;;8.68;100.00;19892.22;5094029;28;20187;-64
2024/01/05 00:25:39;;;;;;;2.80;2.70;;;;;;;8.60;100.00;21171.19;5093831;28;20253;-64
2024/01/05 00:28:06;;;;;;;3.13;2.90;;;;;;;8.61;100.00;20530.31;5093776;28;20188;-63
2024/01/05 00:30:35;;;;;;;3.17;3.07;;;;;;;8.63;100.00;21492.97;5093556;28;20180;-64
2024/01/05 00:33:02;;;;;;;3.00;2.63;;;;;;;8.63;100.00;22454.94;5093692;28;20184;-64
2024/01/05 00:35:29;;;;;;;2.87;2.67;;;;;;;8.64;100.00;22776.06;5093347;28;20249;-64
2024/01/05 00:37:56;;;;;;;2.70;2.60;;;;;;;8.44;100.00;23408.91;5093391;28;20180;-64
2024/01/05 00:40:24;;;;;;;2.97;2.77;;;;;;;8.59;100.00;23094.44;5093427;28;20188;-65
2024/01/05 00:42:52;;;;;;;2.90;2.73;;;;;;;8.61;100.00;22454.09;5093693;28;20612;-63
2024/01/05 00:45:20;;;;;;;2.60;2.50;;;;;;;8.61;100.00;21812.56;5093191;28;20184;-64
2024/01/05 00:47:47;;;;;;;2.73;2.63;;;;;;;8.62;100.00;21492.56;5093435;28;20234;-64
2024/01/05 00:50:14;;;;;;;2.73;2.40;;;;;;;8.67;100.00;21494.59;5093008;28;20196;-64
2024/01/05 00:52:41;;;;;;;2.80;2.60;;;;;;;8.68;100.00;21815.63;5093409;28;20609;-63
2024/01/05 00:55:08;;;;;;;2.77;2.57;;;;;;;8.66;100.00;24060.13;5093092;28;20227;-64
2024/01/05 00:57:37;;;;;;;3.77;2.37;;;;;;;8.55;100.00;26943.56;5093009;28;20269;-63
2024/01/05 01:00:07;;;;;;;2.80;2.70;;;;;;;8.55;100.00;25980.44;5092629;28;20184;-63
2024/01/05 01:02:36;;;;;;;2.50;2.40;;;;;;;8.74;100.00;27274.13;5092780;28;20204;-64
2024/01/05 01:05:03;;;;;;;2.90;2.80;;;;;;;8.82;100.00;30813.84;5092695;28;20195;-64
2024/01/05 01:07:30;;;;;;;2.67;2.57;;;;;;;8.84;100.00;35320.25;5092758;28;20246;-64
2024/01/05 01:09:57;;;;;;;2.53;2.23;;;;;;;8.86;100.00;42414.19;5093038;28;20590;-63
2024/01/05 01:12:26;;;;;;;2.40;2.30;;;;;;;8.85;100.00;46611.53;5093119;28;20184;-64
2024/01/05 01:14:55;;;;;;;2.20;2.10;;;;;;;8.69;100.00;50477.66;5092848;28;20183;-64
2024/01/05 01:17:22;;;;;;;2.63;2.50;;;;;;;8.79;100.00;51780.63;5092938;28;20184;-63
2024/01/05 01:19:49;;;;;;;2.13;2.03;;;;;;;8.78;100.00;53073.88;5093358;28;20603;-64
2024/01/05 01:22:16;;;;;;;2.97;2.00;;;;;;;8.75;100.00;54366.13;5092673;28;20261;-64
2024/01/05 01:24:43;;;;;;;2.33;2.20;;;;;;;8.76;100.00;54043.28;5092707;28;20180;-65
2024/01/05 01:27:10;;;;;;;2.40;2.20;;;;;;;8.71;100.00;54363.31;5092351;28;20642;-64
2024/01/05 01:29:37;;;;;;;3.33;2.20;;;;;;;8.66;100.00;56301.78;5092813;28;20180;-65
2024/01/05 01:32:07;;;;;;;2.27;2.17;;;;;;;8.57;100.00;60182.19;5093148;28;20221;-64
2024/01/05 01:34:34;;;;;;;2.27;2.17;;;;;;;8.42;100.00;53364.59;5092735;28;20608;-63
2024/01/05 01:37:02;;;;;;;2.30;2.20;;;;;;;8.46;100.00;52074.25;5092040;28;20195;-64
2024/01/05 01:39:30;;;;;;;8.17;2.40;;;;;;;8.50;100.00;51108.06;5092207;28;20184;-63
2024/01/05 01:41:57;;;;;;;2.67;2.47;;;;;;;8.38;100.00;52067.44;5092135;28;20279;-64
2024/01/05 01:44:25;;;;;;;1.93;1.83;;;;;;;8.46;100.00;48518.59;5092267;28;20183;-63
2024/01/05 01:46:53;;;;;;;2.53;2.10;;;;;;;8.34;100.00;42698.13;5092230;28;20180;-65
2024/01/05 01:49:21;;;;;;;2.33;2.23;;;;;;;8.33;100.00;37219.91;5092592;28;20261;-64
2024/01/05 01:51:49;;;;;;;2.20;1.97;;;;;;;8.35;100.00;35933.59;5092339;28;20530;-64
2024/01/05 01:54:17;;;;;;;3.73;2.73;;;;;;;8.46;100.00;34652.97;5092081;28;20297;-64
2024/01/05 01:56:45;;;;;;;2.30;2.10;;;;;;;8.53;100.00;35301.00;5092208;28;20697;-64
2024/01/05 01:59:14;;;;;;;2.80;1.93;;;;;;;8.54;100.00;37233.84;5092554;28;20593;-64
2024/01/05 02:01:42;;;;;;;2.37;2.27;;;;;;;8.61;100.00;41428.53;5091758;28;20211;-64
2024/01/05 02:04:15;;;;;;;3.43;2.10;;;;;;;8.69;100.00;44984.41;5091966;28;20241;-65
2024/01/05 02:06:45;;;;;;;2.20;2.10;;;;;;;8.72;100.00;47570.63;5092424;28;20219;-65
2024/01/05 02:09:13;;;;;;;2.33;2.07;;;;;;;8.75;100.00;49188.97;5092005;28;20621;-63
2024/01/05 02:11:40;;;;;;;2.10;2.00;;;;;;;8.68;100.00;51123.69;5092197;28;20536;-65
2024/01/05 02:14:07;;;;;;;2.53;2.07;;;;;;;8.44;100.00;51749.47;5091800;28;20200;-63
2024/01/05 02:16:35;;;;;;;2.50;2.40;;;;;;;8.59;100.00;51763.00;5091798;28;20234;-65
2024/01/05 02:19:02;;;;;;;2.23;2.00;;;;;;;8.49;100.00;48521.13;5092209;28;20657;-65
2024/01/05 02:21:32;;;;;;;2.83;1.80;;;;;;;8.48;100.00;42063.97;5091709;28;20261;-64
2024/01/05 02:24:01;;;;;;;2.30;2.20;;;;;;;8.66;100.00;35631.50;5091621;28;20180;-65
2024/01/05 02:26:28;;;;;;;2.63;2.10;;;;;;;8.70;100.00;32093.84;5092084;28;20203;-64
2024/01/05 02:28:56;;;;;;;2.23;2.13;;;;;;;8.75;100.00;30488.41;5091640;28;20194;-64
2024/01/05 02:31:23;;;;;;;2.97;2.20;;;;;;;8.83;100.00;30171.25;5091664;28;20184;-64
2024/01/05 02:33:50;;;;;;;2.00;1.80;;;;;;;8.92;100.00;32428.06;5091488;28;20188;-64
2024/01/05 02:36:17;;;;;;;2.17;2.07;;;;;;;9.00;100.00;35652.81;5091651;28;20253;-64
2024/01/05 02:38:44;;;;;;;2.27;2.07;;;;;;;9.05;100.00;37589.34;5093441;28;20608;-64
2024/01/05 02:41:12;;;;;;;1.80;1.70;;;;;;;9.06;100.00;39202.63;5095315;28;20212;-64
2024/01/05 02:43:39;;;;;;;1.93;1.83;;;;;;;8.98;100.00;41777.63;5095862;28;20226;-64
2024/01/05 02:46:09;;;;;;;1.90;1.80;;;;;;;9.07;100.00;45659.91;5095425;28;20180;-64
2024/01/05 02:48:36;;;;;;;2.00;1.90;;;;;;;9.20;100.00;47609.84;5095367;28;20540;-64
2024/01/05 02:51:03;;;;;;;1.90;1.80;;;;;;;9.23;100.00;48582.75;5095212;28;20180;-64
2024/01/05 02:53:30;;;;;;;2.00;1.90;;;;;;;9.24;100.00;51496.56;5095266;28;20235;-64
2024/01/05 02:55:57;;;;;;;1.70;1.60;;;;;;;9.09;100.00;51807.72;5095580;28;20181;-64
2024/01/05 02:58:25;;;;;;;1.77;1.67;;;;;;;9.08;100.00;53425.97;5095345;28;20253;-64
2024/01/05 03:00:52;;;;;;;1.50;1.50;;;;;;;9.16;100.00;54081.38;5095270;28;20215;-65
2024/01/05 03:03:20;;;;;;;1.77;1.67;;;;;;;9.17;100.00;55054.03;5095544;28;20204;-64
2024/01/05 03:05:47;;;;;;;2.03;1.60;;;;;;;9.15;100.00;54404.47;5095170;28;20577;-65
2024/01/05 03:08:14;;;;;;;2.20;1.60;;;;;;;9.08;100.00;54073.41;5095216;28;20642;-63
2024/01/05 03:10:41;;;;;;;1.83;1.80;;;;;;;8.88;100.00;52759.38;5095418;28;20241;-64
2024/01/05 03:13:08;;;;;;;2.13;2.03;;;;;;;9.16;100.00;52461.72;5095025;28;20565;-64
2024/01/05 03:15:37;;;;;;;1.67;1.57;;;;;;;9.06;100.00;52128.34;5095222;28;20187;-64
2024/01/05 03:18:04;;;;;;;1.60;1.50;;;;;;;9.06;100.00;50833.50;5095480;28;20185;-63
2024/01/05 03:20:31;;;;;;;1.57;1.47;;;;;;;8.96;100.00;47913.53;5095223;28;20254;-64
2024/01/05 03:22:58;;;;;;;1.80;1.70;;;;;;;8.96;100.00;46297.75;5095056;28;20237;-64
2024/01/05 03:25:25;;;;;;;1.77;1.67;;;;;;;9.00;100.00;45331.59;5095416;28;20646;-65
2024/01/05 03:27:53;;;;;;;1.80;1.70;;;;;;;8.88;100.00;45967.75;5094973;28;20237;-65
2024/01/05 03:30:20;;;;;;;4.50;1.80;;;;;;;8.97;100.00;45975.00;5095003;28;20561;-64
2024/01/05 03:32:48;;;;;;;2.00;1.90;;;;;;;8.92;100.00;45648.28;5094815;28;20183;-63
2024/01/05 03:35:15;;;;;;;2.03;1.93;;;;;;;8.74;100.00;43051.00;5094744;28;20694;-64
2024/01/05 03:37:42;;;;;;;6.27;2.10;;;;;;;8.83;100.00;43057.81;5094376;28;20188;-64
2024/01/05 03:40:10;;;;;;;1.73;1.63;;;;;;;8.69;100.00;41111.88;5094470;28;20188;-64
2024/01/05 03:42:37;;;;;;;2.10;1.90;;;;;;;8.88;100.00;41447.56;5094950;28;20281;-64
2024/01/05 03:45:05;;;;;;;1.73;1.63;;;;;;;8.83;100.00;41443.91;5094977;28;20195;-64
2024/01/05 03:47:32;;;;;;;1.90;1.80;;;;;;;8.79;100.00;41441.34;5094149;28;20188;-63
2024/01/05 03:50:00;;;;;;;1.80;1.70;;;;;;;8.89;100.00;42416.81;5093862;28;20176;-65
2024/01/05 03:52:28;;;;;;;1.50;1.50;;;;;;;8.83;100.00;42089.22;5094157;28;20188;-63
2024/01/05 03:54:55;;;;;;;1.87;1.77;;;;;;;8.87;100.00;43060.47;5094028;28;20586;-64
2024/01/05 03:57:22;;;;;;;2.00;1.90;;;;;;;8.90;100.00;42417.56;5094537;28;20180;-63
2024/01/05 03:59:49;;;;;;;2.03;1.93;;;;;;;8.94;100.00;42742.97;5094909;28;20242;-64
2024/01/05 04:02:16;;;;;;;2.23;1.80;;;;;;;8.78;100.00;43053.66;5094311;28;20211;-63
2024/01/05 04:04:43;;;;;;;2.00;1.90;;;;;;;8.98;100.00;43392.09;5094184;28;20180;-63
2024/01/05 04:07:12;;;;;;;2.10;2.00;;;;;;;8.88;100.00;45967.75;5094223;28;20184;-64
2024/01/05 04:09:39;;;;;;;2.20;2.10;;;;;;;8.94;100.00;47589.00;5094305;28;20184;-64
2024/01/05 04:12:07;;;;;;;2.30;2.10;;;;;;;9.01;100.00;48241.50;5094023;28;20181;-64
2024/01/05 04:14:35;;;;;;;2.47;2.30;;;;;;;9.06;100.00;50833.50;5093707;28;20276;-65
2024/01/05 04:17:03;;;;;;;2.07;1.97;;;;;;;9.06;100.00;52775.94;5094227;28;20562;-64
2024/01/05 04:19:30;;;;;;;2.00;1.90;;;;;;;9.10;100.00;53103.47;5093758;28;20226;-63
2024/01/05 04:21:57;;;;;;;2.23;1.90;;;;;;;9.08;100.00;54721.41;5093606;28;20210;-63
2024/01/05 04:24:26;;;;;;;2.30;1.73;;;;;;;9.07;100.00;54720.44;5093886;28;20188;-64
2024/01/05 04:26:53;;;;;;;1.80;1.70;;;;;;;8.92;100.00;56002.19;5093907;28;20249;-64
2024/01/05 04:29:20;;;;;;;1.93;1.83;;;;;;;8.99;100.00;53741.03;5093616;28;20184;-64
2024/01/05 04:31:47;;;;;;;2.33;2.23;;;;;;;9.02;100.00;53744.31;5093797;28;20608;-64
2024/01/05 04:34:14;;;;;;;2.73;1.77;;;;;;;8.90;100.00;54704.25;5093297;28;20210;-64
2024/01/05 04:36:41;;;;;;;2.27;2.07;;;;;;;8.91;100.00;55353.63;5093315;28;20608;-64
2024/01/05 04:39:09;;;;;;;2.50;2.37;;;;;;;8.99;100.00;56009.00;5093780;28;20658;-63
2024/01/05 04:41:38;;;;;;;2.43;2.20;;;;;;;8.98;100.00;55359.88;5093431;28;20623;-64
2024/01/05 04:44:05;;;;;;;3.83;2.37;;;;;;;8.82;100.00;55021.03;5093475;28;20188;-64
2024/01/05 04:46:32;;;;;;;1.57;1.53;;;;;;;8.96;100.00;56006.06;5092953;28;20267;-64
2024/01/05 04:48:59;;;;;;;1.97;1.87;;;;;;;8.97;100.00;56007.03;5093369;28;20215;-64
2024/01/05 04:51:27;;;;;;;1.90;1.80;;;;;;;8.91;100.00;57621.91;5092959;28;20195;-64
2024/01/05 04:53:53;;;;;;;2.03;1.93;;;;;;;8.96;100.00;55682.47;5093222;28;20227;-64
2024/01/05 04:56:20;;;;;;;2.30;2.07;;;;;;;9.02;100.00;57957.72;5093116;28;20237;-65
2024/01/05 04:58:49;;;;;;;4.80;2.30;;;;;;;9.02;100.00;61851.13;5092988;28;20222;-64
2024/01/05 05:01:16;;;;;;;2.30;2.20;;;;;;;9.06;100.00;65429.53;5091831;28;20188;-64
2024/01/05 05:03:43;;;;;;;2.80;2.70;;;;;;;8.82;100.00;64752.66;5092842;28;20285;-65
2024/01/05 05:06:10;;;;;;;3.10;2.90;;;;;;;9.03;100.00;66401.38;5093034;28;20549;-63
2024/01/05 05:08:37;;;;;;;2.37;2.27;;;;;;;8.98;100.00;66395.66;5092701;28;20183;-65
2024/01/05 05:11:05;;;;;;;3.20;3.00;;;;;;;9.13;100.00;65761.97;5092540;28;20237;-65
2024/01/05 05:13:32;;;;;;;3.80;3.50;;;;;;;9.14;100.00;68365.63;5092430;28;20180;-63
2024/01/05 05:16:01;;;;;;;2.30;2.20;;;;;;;9.19;100.00;69998.25;5092326;28;20188;-64
2024/01/05 05:18:28;;;;;;;3.03;2.27;;;;;;;9.23;100.00;71305.59;5092762;28;20185;-63
2024/01/05 05:20:55;;;;;;;2.53;2.30;;;;;;;9.30;100.00;74898.44;5092838;28;20184;-64
2024/01/05 05:23:22;;;;;;;2.40;2.30;;;;;;;9.19;100.00;77494.00;5092428;28;20204;-64
2024/01/05 05:25:49;;;;;;;3.83;3.53;;;;;;;9.31;100.00;82735.13;5092724;28;20196;-64
2024/01/05 05:28:16;;;;;;;5.70;5.30;;;;;;;9.29;100.00;84693.72;5092557;28;20230;-65
2024/01/05 05:30:43;;;;;;;2.20;2.10;;;;;;;9.05;100.00;83024.94;5092654;28;20192;-63
2024/01/05 05:33:12;;;;;;;4.40;4.20;;;;;;;8.95;100.00;74854.03;5092221;28;20217;-64
2024/01/05 05:35:39;;;;;;;2.87;2.77;;;;;;;9.05;100.00;74867.56;5092172;28;20184;-64
2024/01/05 05:38:06;;;;;;;4.47;3.03;;;;;;;8.85;100.00;70608.06;5092528;28;20622;-64
2024/01/05 05:40:33;;;;;;;3.83;2.70;;;;;;;8.86;100.00;66381.91;5091938;28;20665;-64
2024/01/05 05:43:00;;;;;;;2.73;2.60;;;;;;;8.69;100.00;63439.25;5092358;28;20211;-64
2024/01/05 05:45:27;;;;;;;2.70;2.50;;;;;;;8.80;100.00;61828.09;5092212;28;20184;-63
2024/01/05 05:47:54;;;;;;;2.63;2.43;;;;;;;8.80;100.00;61503.56;5092342;28;20184;-63
2024/01/05 05:50:23;;;;;;;4.00;2.40;;;;;;;8.70;100.00;62791.59;5092046;28;20184;-64
2024/01/05 05:52:51;;;;;;;2.70;1.83;;;;;;;8.85;100.00;64106.34;5092815;28;20188;-63
2024/01/05 05:55:18;;;;;;;3.53;2.97;;;;;;;8.80;100.00;66699.44;5091938;28;20231;-64
2024/01/05 05:57:45;;;;;;;1.93;1.83;;;;;;;9.01;100.00;70628.13;5092376;28;20610;-64
2024/01/05 06:00:14;;;;;;;2.53;2.33;;;;;;;9.07;100.00;75847.47;5092137;28;20546;-65
2024/01/05 06:02:41;;;;;;;3.20;2.33;;;;;;;9.24;100.00;83378.84;5091962;28;20204;-64
2024/01/05 06:05:09;;;;;;;3.37;3.03;;;;;;;9.38;100.00;88960.94;5092035;28;20180;-64
2024/01/05 06:07:37;;;;;;;2.70;2.50;;;;;;;9.56;100.00;98500.25;5092129;28;20206;-63
2024/01/05 06:10:05;;;;;;;2.47;2.33;;;;;;;9.73;100.00;107739.22;5091784;28;20184;-64
2024/01/05 06:12:32;;;;;;;2.93;2.73;;;;;;;10.08;100.00;139661.19;5092917;28;20273;-64
2024/01/05 06:15:00;;;;;;;3.23;3.03;;;;;;;10.20;100.00;148604.78;5096031;28;20323;-64
2024/01/05 06:17:27;;;;;;;5.07;4.77;;;;;;;10.75;100.00;148742.56;5096490;28;20275;-64
2024/01/05 06:19:54;;;;;;;3.63;3.43;;;;;;;10.96;100.00;148795.66;5095719;28;20570;-65
2024/01/05 06:22:22;;;;;;;3.70;3.40;;;;;;;11.11;100.00;148833.63;5095693;28;20245;-64
2024/01/05 06:24:50;;;;;;;3.47;3.27;;;;;;;11.28;100.00;148875.38;5095661;28;20187;-64
2024/01/05 06:27:17;;;;;;;3.87;3.57;;;;;;;11.42;100.00;148910.75;5095627;28;20179;-64
2024/01/05 06:29:45;;;;;;;4.90;4.60;;;;;;;11.89;100.00;149029.72;5096848;28;20184;-63
2024/01/05 06:32:12;;;;;;;5.33;4.93;;;;;;;12.19;100.00;149104.41;5097488;28;20184;-64
2024/01/05 06:34:39;;;;;;;4.60;4.20;;;;;;;12.43;100.00;149162.63;5096221;28;20188;-64
2024/01/05 06:37:06;;;;;;;3.93;3.63;;;;;;;12.81;100.00;149258.88;5095768;28;20183;-59
2024/01/05 06:39:33;;;;;;;3.20;3.10;;;;;;;12.92;100.00;149286.72;5096079;28;20188;-63
2024/01/05 06:42:01;;;;;;;4.30;3.57;;;;;;;13.30;100.00;149380.47;5095926;28;20592;-62
2024/01/05 06:44:28;;;;;;;3.30;3.10;;;;;;;13.63;100.00;149464.09;5095687;28;20212;-61
2024/01/05 06:46:55;;;;;;;2.90;2.80;;;;;;;13.97;100.00;149550.25;5095448;28;20248;-61
2024/01/05 06:49:23;;;;;;;18.23;15.53;;;;;;;14.55;100.00;149694.84;5096207;28;20183;-59
2024/01/05 06:51:50;;;;;;;13.17;12.17;;;;;;;14.68;100.00;149726.56;5095076;28;20219;-58
2024/01/05 06:54:17;;;;;;;7.63;6.87;;;;;;;14.64;100.00;149718.91;5095080;28;20639;-60
2024/01/05 06:56:44;;;;;;;4.50;4.30;;;;;;;14.49;100.00;149679.63;5095290;28;20612;-60
2024/01/05 06:59:13;;;;;;;4.23;3.93;;;;;;;15.02;100.00;149812.81;5095228;28;20558;-59
2024/01/05 07:01:40;;;;;;;7.37;4.37;;;;;;;15.74;100.00;149993.00;5094867;28;20207;-59
2024/01/05 07:04:08;;;;;;;3.47;3.27;;;;;;;16.37;100.00;150152.97;5094756;28;20204;-60
2024/01/05 07:06:40;;;;;;;3.20;3.10;;;;;;;17.13;100.00;150343.50;5094797;28;20229;-64
2024/01/05 07:09:07;;;;;;;2.90;2.73;;;;;;;17.72;100.00;150492.22;5096457;28;20267;-64
2024/01/05 07:11:34;;;;;;;5.00;4.80;;;;;;;18.21;97.22;150614.25;5096362;28;20668;-64
2024/01/05 07:14:01;;;;;;;4.80;4.60;;;;;;;18.07;97.82;150579.94;5095262;28;20188;-63
2024/01/05 07:16:29;;;;;;;4.17;3.87;;;;;;;17.82;100.00;150515.13;5095457;28;20672;-64
2024/01/05 07:18:56;;;;;;;3.40;3.30;;;;;;;18.13;98.26;150595.19;5097131;28;20176;-63
2024/01/05 07:21:23;;;;;;;3.30;3.20;;;;;;;18.37;97.86;150654.97;5095814;28;20250;-62
2024/01/05 07:23:51;;;;;;;3.40;3.17;;;;;;;19.45;89.08;150926.00;5094605;28;20690;-63
2024/01/05 07:26:21;;;;;;;6.50;5.93;;;;;;;19.84;82.14;151024.00;5095431;28;20263;-63
2024/01/05 07:28:49;;;;;;;3.07;2.97;;;;;;;20.60;78.95;151215.03;5094413;28;20184;-62
2024/01/05 07:31:16;;;;;;;4.93;4.63;;;;;;;20.25;75.33;151128.38;5094570;28;20188;-63
2024/01/05 07:33:44;;;;;;;4.05;3.85;;;;;;;20.25;77.61;151128.38;5094792;28;20214;-63
2024/01/05 07:36:11;;;;;;;3.33;3.22;;;;;;;20.15;78.71;151102.94;5095897;28;20231;-63
2024/01/05 07:38:39;;;;;;;2.92;2.83;;;;;;;20.11;72.35;151091.50;5095777;28;20211;-64
2024/01/05 07:41:06;;;;;;;4.07;3.90;;;;;;;20.41;71.50;151169.19;5095753;28;20215;-63
2024/01/05 07:43:33;;;;;;;3.45;3.25;;;;;;;20.30;73.57;151139.91;5094058;28;20207;-64
2024/01/05 07:46:02;;;;;;;3.25;3.10;;;;;;;19.80;74.96;151015.09;5094701;28;20211;-64
2024/01/05 07:48:29;;;;;;;3.95;3.40;;;;;;;20.16;76.30;151104.19;5094218;28;20623;-63
2024/01/05 07:50:58;;;;;;;4.20;3.47;;;;;;;20.62;71.63;151221.44;5094389;28;20222;-64
2024/01/05 07:53:25;;;;;;;8.50;5.03;;;;;;;20.65;71.81;151227.78;5093629;28;20219;-63
2024/01/05 07:55:52;;;;;;;5.25;5.03;;;;;;;20.92;69.59;151297.81;5094316;28;20184;-64
2024/01/05 07:58:19;;;;;;;10.82;4.55;;;;;;;20.38;73.44;151160.28;5094461;28;20242;-64
2024/01/05 08:00:46;;;;;;;5.38;4.97;;;;;;;20.92;69.24;151296.53;5094507;28;20180;-64
2024/01/05 08:03:13;;;;;;;9.88;4.38;;;;;;;22.18;62.67;151615.28;5098602;28;20253;-64
2024/01/05 08:05:41;;;;;;;5.85;4.07;;;;;;;21.74;62.57;151503.03;5094444;28;20180;-64
2024/01/05 08:08:09;;;;;;;17.45;4.93;;;;;;;22.20;60.89;151620.38;5094339;28;20185;-64
2024/01/05 08:10:36;;;;;;;12.95;5.38;;;;;;;22.22;61.70;151625.50;5094566;28;20191;-64
2024/01/05 08:13:04;;;;;;;28.50;8.77;;;;;;;22.10;62.68;151593.63;5094297;28;20180;-64
2024/01/05 08:15:31;;;;;;;18.73;7.45;;;;;;;21.84;62.53;151528.53;5094003;28;20188;-64
2024/01/05 08:17:59;;;;;;;10.18;6.43;;;;;;;22.27;60.96;151636.97;5094139;28;20188;-61
2024/01/05 08:20:26;;;;;;;9.10;7.85;;;;;;;22.00;61.21;151569.38;5095122;28;20180;-62
2024/01/05 08:22:53;;;;;;;9.65;6.95;;;;;;;21.30;64.59;151393.41;5096205;28;20229;-64
2024/01/05 08:25:21;;;;;;;9.45;8.60;;;;;;;20.80;66.75;151265.97;5094600;28;20226;-65
2024/01/05 08:27:49;;;;;;;9.00;7.80;;;;;;;21.61;63.84;151469.88;5095858;28;20253;-65
2024/01/05 08:30:16;;;;;;;13.23;6.43;;;;;;;23.27;57.42;151888.28;5093425;28;20184;-64
2024/01/05 08:32:43;;;;;;;11.25;5.88;;;;;;;24.76;51.33;152266.25;5094106;28;20312;-64
2024/01/05 08:35:10;;;;;;;7.20;4.15;;;;;;;24.65;50.20;152238.16;5097556;28;20515;-64
2024/01/05 08:37:37;;;;;;;4.25;3.38;;;;;;;25.79;48.31;152527.00;5096407;28;20528;-64
2024/01/05 08:40:06;;;;;;;5.60;2.70;;;;;;;26.04;47.15;152589.63;5095478;28;20184;-63
2024/01/05 08:42:35;;;;;;;11.85;3.00;;;;;;;26.54;44.41;152716.25;5096103;28;20180;-64
2024/01/05 08:45:02;;;;;;;25.15;4.57;;;;;;;26.30;45.01;152656.16;5093456;28;20272;-64
2024/01/05 08:47:29;;;;;;;6.60;2.53;;;;;;;25.15;46.41;152363.38;5093940;28;20188;-61
2024/01/05 08:49:56;;;;;;;3.85;2.10;;;;;;;23.72;49.36;152003.16;5094142;28;20214;-63
2024/01/05 08:52:23;;;;;;;13.68;2.88;;;;;;;23.51;50.90;151949.56;5094228;28;20264;-62
2024/01/05 08:54:50;;;;;;;7.03;2.60;;;;;;;24.36;50.06;152165.34;5092928;28;20224;-63
2024/01/05 08:57:17;;;;;;;10.50;2.90;;;;;;;24.21;50.69;152125.78;5093132;28;20184;-66
2024/01/05 08:59:46;;;;;;;6.50;2.42;;;;;;;23.37;51.60;151915.09;5092748;28;20188;-62
2024/01/05 09:02:13;;;;;;;7.22;2.40;;;;;;;24.99;49.04;152325.03;5092674;28;20261;-61
2024/01/05 09:04:40;;;;;;;3.78;2.20;;;;;;;24.17;49.33;152115.56;5093099;28;20211;-62
2024/01/05 09:07:07;;;;;;;7.93;2.55;;;;;;;25.48;47.38;152447.72;5092352;28;20245;-63
2024/01/05 09:09:34;;;;;;;1.40;1.40;;;;;;;25.67;46.93;152496.34;5092846;28;20189;-63
2024/01/05 09:12:02;;;;;;;1.83;1.73;;;;;;;24.96;48.32;152317.38;5092606;28;20218;-62
2024/01/05 09:14:29;;;;;;;4.70;1.75;;;;;;;24.24;50.01;152133.44;5092402;28;20219;-63
2024/01/05 09:17:00;;;;;;;6.72;2.53;;;;;;;25.06;48.67;152340.38;5092088;28;20241;-62
2024/01/05 09:19:32;;;;;;;1.88;1.67;;;;;;;26.50;45.51;152706.00;5092688;28;20191;-63
2024/01/05 09:22:02;;;;;;;5.22;1.75;;;;;;;26.20;45.33;152629.28;5092595;28;20561;-63
2024/01/05 09:24:42;;;;;;;4.25;1.67;;;;;;;25.62;46.40;152483.56;5092107;28;20220;-62
2024/01/05 09:27:09;;;;;;;3.47;1.63;;;;;;;24.78;47.61;152271.34;5091917;28;20202;-63
2024/01/05 09:29:36;;;;;;;7.90;2.67;;;;;;;25.42;47.43;152432.34;5090969;28;20229;-64
2024/01/05 09:32:05;;;;;;;6.03;3.17;;;;;;;25.69;46.39;152500.16;5092139;28;20686;-63
2024/01/05 09:34:32;;;;;;;17.05;3.58;;;;;;;26.23;45.58;152638.22;5092686;28;20192;-62
2024/01/05 09:36:59;;;;;;;10.93;3.35;;;;;;;26.08;45.54;152598.56;5093086;28;20184;-62
2024/01/05 09:39:26;;;;;;;4.10;1.92;;;;;;;25.64;46.16;152487.34;5092150;28;20189;-62
2024/01/05 09:41:54;;;;;;;6.80;2.97;;;;;;;26.68;45.12;152752.06;5091878;28;20187;-63
2024/01/05 09:44:22;;;;;;;9.10;2.60;;;;;;;26.42;44.84;152684.28;5092209;28;20200;-63
2024/01/05 09:46:50;;;;;;;11.52;2.85;;;;;;;26.34;44.89;152666.41;5092081;28;20184;-62
2024/01/05 09:49:20;;;;;;;14.15;3.60;;;;;;;26.34;45.15;152666.41;5091990;28;20233;-64
2024/01/05 09:51:47;;;;;;;6.25;2.75;;;;;;;26.12;45.16;152608.78;5092725;28;20192;-63
2024/01/05 09:54:15;;;;;;;3.30;1.90;;;;;;;25.99;44.82;152575.56;5092375;28;20729;-62
2024/01/05 09:56:46;;;;;;;8.77;3.53;;;;;;;25.47;46.85;152445.13;5092604;28;20691;-62
2024/01/05 09:59:17;;;;;;;10.40;3.47;;;;;;;24.93;46.75;152309.72;5091842;28;20184;-63
2024/01/05 10:01:48;;;;;;;2.95;2.08;;;;;;;25.15;45.59;152363.38;5092432;28;20578;-63
2024/01/05 10:04:15;;;;;;;2.15;1.33;;;;;;;24.16;47.34;152114.28;5092273;28;20587;-61
2024/01/05 10:06:43;;;;;;;2.90;1.60;;;;;;;24.41;47.87;152176.84;5092391;28;20222;-61
2024/01/05 10:09:10;;;;;;;3.58;1.83;;;;;;;24.03;49.82;152081.03;5091521;28;20268;-62
2024/01/05 10:11:41;;;;;;;3.40;2.35;;;;;;;24.02;49.34;152079.75;5091648;28;20184;-62
2024/01/05 10:14:12;;;;;;;2.28;1.95;;;;;;;24.13;48.83;152107.88;5091439;28;20180;-63
2024/01/05 10:16:39;;;;;;;1.73;1.63;;;;;;;23.70;49.51;151998.09;5091956;28;20684;-63
2024/01/05 10:19:13;;;;;;;4.80;2.03;;;;;;;25.12;47.47;152355.72;5092359;28;20191;-63
2024/01/05 10:21:41;;;;;;;7.50;2.75;;;;;;;24.99;46.94;152323.78;5092195;28;20539;-62
2024/01/05 10:24:22;;;;;;;3.45;2.28;;;;;;;25.78;45.36;152524.44;5091179;28;20218;-63
2024/01/05 10:27:01;;;;;;;1.67;1.30;;;;;;;25.09;45.16;152348.03;5092165;28;20569;-60
2024/01/05 10:29:29;;;;;;;1.40;1.25;;;;;;;26.28;44.13;152649.75;5091536;28;20175;-63
2024/01/05 10:32:10;;;;;;;1.70;1.60;;;;;;;27.21;41.34;152885.09;5092330;28;20612;-63
2024/01/05 10:34:37;;;;;;;5.30;1.38;;;;;;;25.96;43.19;152569.19;5091790;28;20184;-62
2024/01/05 10:37:05;;;;;;;1.77;1.50;;;;;;;26.18;42.41;152624.16;5091965;28;20195;-62
2024/01/05 10:39:33;;;;;;;3.28;1.63;;;;;;;25.79;42.79;152527.00;5092155;28;20184;-62
2024/01/05 10:42:15;;;;;;;9.77;3.10;;;;;;;25.39;43.62;152424.69;5092307;28;20643;-62
2024/01/05 10:44:45;;;;;;;10.10;2.38;;;;;;;25.77;42.88;152520.59;5091871;28;20273;-61
2024/01/05 10:47:14;;;;;;;4.07;2.25;;;;;;;26.09;42.60;152601.13;5091529;28;20188;-62
2024/01/05 10:49:45;;;;;;;3.95;1.77;;;;;;;26.25;42.80;152642.09;5094637;28;20530;-62
2024/01/05 10:52:13;;;;;;;19.10;3.50;;;;;;;26.43;42.09;152686.84;5091845;28;20331;-61
2024/01/05 10:54:45;;;;;;;5.65;2.25;;;;;;;26.58;39.93;152725.19;5092591;28;20227;-62
2024/01/05 10:57:14;;;;;;;7.40;2.50;;;;;;;25.72;41.25;152507.81;5092101;28;20192;-62
2024/01/05 10:59:44;;;;;;;3.17;2.13;;;;;;;26.47;40.96;152698.34;5093962;28;20184;-63
2024/01/05 11:02:20;;;;;;;1.50;1.40;;;;;;;26.32;41.42;152659.97;5095181;28;20243;-62
2024/01/05 11:04:53;;;;;;;1.23;1.10;;;;;;;26.44;42.23;152689.41;5095678;28;20748;-63
2024/01/05 11:07:22;;;;;;;1.92;1.60;;;;;;;27.36;40.26;152923.50;5096310;28;20188;-63
2024/01/05 11:10:03;;;;;;;5.60;2.17;;;;;;;27.85;39.39;153046.38;5095879;28;20184;-63
2024/01/05 11:12:47;;;;;;;1.60;1.52;;;;;;;27.75;39.80;153020.81;5096393;28;20188;-59
2024/01/05 11:15:30;;;;;;;3.28;1.60;;;;;;;27.76;38.66;153023.31;5095116;28;20188;-60
2024/01/05 11:18:40;;;;;;;4.97;1.92;;;;;;;27.93;38.63;153066.84;5094856;28;20654;-59
2024/01/05 11:21:12;;;;;;;1.42;1.35;;;;;;;28.46;38.37;153202.59;5078947;28;20203;-59
2024/01/05 11:23:42;;;;;;;2.78;1.58;;;;;;;27.12;40.77;152863.34;5094557;28;20245;-58
2024/01/05 11:26:34;;;;;;;1.73;1.50;;;;;;;27.15;40.99;152869.78;5095448;28;20199;-59
2024/01/05 11:29:01;;;;;;;1.35;1.30;;;;;;;26.74;41.46;152767.38;5094787;28;20275;-59
2024/01/05 11:31:50;;;;;;;4.07;1.60;;;;;;;26.73;40.08;152764.81;5094752;28;20626;-59
2024/01/05 11:34:31;;;;;;;2.75;1.48;;;;;;;26.15;41.73;152616.44;5094853;28;20640;-58